Ville De Bordeaux — FZCE — position and weather

sailwx.info

Track history (hours):
 
Tides and Currents Weather Stations Pressure Air Temp Water Temp Dewpoint Dewpoint Depression Visibility Wind Speed Wind Dir Waves Ship Positions

Ville De Bordeaux

Last reported at 2017-Aug-22 17:48 UTC. Time now 2017-Aug-22 20:41 UTC.
Position N 41°35' W 009°46'.

Length 150 m; beam 24 m.

Type: Ship. MMSI: 228084000.

Date/timePositionNaut miles runAvg speedWind from/ knotsBaromVisibWave heightAir tempDewpointWater temp
2017-Aug-22 17:48N 41°35' W 009°46'515.1
2017-Aug-22 17:30N 41°31' W 009°47'815.1
2017-Aug-22 16:58N 41°23' W 009°48'3816.0
2017-Aug-22 14:34N 40°44' W 009°49'2517.7
2017-Aug-22 13:09N 40°19' W 009°50'719.7
2017-Aug-22 12:49N 40°12' W 009°50'1019.5
2017-Aug-22 12:17N 40°02' W 009°50'1816.9
2017-Aug-22 11:13N 39°44' W 009°50'2516.5
2017-Aug-22 09:42N 39°19' W 009°50'316.6
2017-Aug-22 09:31N 39°16' W 009°50'816.1
2017-Aug-22 09:00N 39°08' W 009°51'816.1
2017-Aug-22 08:30N 38°60' W 009°51'816.1
2017-Aug-22 08:00N 38°52' W 009°51'815.8
2017-Aug-22 07:30N 38°44' W 009°52'815.9
2017-Aug-22 07:01N 38°36' W 009°49'816.2
2017-Aug-22 06:30N 38°28' W 009°47'816.1
2017-Aug-22 06:00N 38°20' W 009°44'815.5
2017-Aug-22 05:30N 38°13' W 009°42'9315.7
2017-Aug-21 23:36N 36°44' W 009°08'616.3
2017-Aug-21 23:15N 36°43' W 009°01'516.1
2017-Aug-21 22:57N 36°42' W 008°55'166 6.6
2017-Aug-20 22:00N 35°58' W 005°37'4 0.6
2017-Aug-20 14:44N 35°57' W 005°32'313.6
2017-Aug-20 14:30N 35°59' W 005°29'714.4
2017-Aug-20 14:00N 36°00' W 005°20'714.3
2017-Aug-20 13:30N 36°01' W 005°12'21312.0
2017-Aug-19 19:47N 36°43' W 000°53'2413.8
2017-Aug-19 18:01N 36°49' W 000°23'019.6
2017-Aug-19 18:00N 36°49' W 000°23'1018.6
2017-Aug-19 17:29N 36°52' W 000°11'919.0
2017-Aug-19 17:00N 36°54' W 000°00'918.6
2017-Aug-19 16:30N 36°56' E 000°11'3618.0
2017-Aug-19 14:30N 37°06' E 000°54'918.2
2017-Aug-19 14:00N 37°08' E 001°05'16617.8
2017-Aug-19 04:40N 37°52' E 004°28'317.2
2017-Aug-19 04:29N 37°52' E 004°32'4017.0
2017-Aug-19 02:07N 38°03' E 005°21'2117.0
2017-Aug-19 00:55N 38°08' E 005°46'717.0
2017-Aug-19 00:29N 38°10' E 005°55'817.2
2017-Aug-18 23:59N 38°12' E 006°06'816.8
2017-Aug-18 23:30N 38°14' E 006°16'8617.1
2017-Aug-18 18:29N 38°35' E 008°02'1316.5
2017-Aug-18 17:41N 38°39' E 008°18'1117.1
2017-Aug-18 17:02N 38°43' E 008°31'117.2
2017-Aug-18 17:00N 38°43' E 008°32'1017.0
2017-Aug-18 16:26N 38°46' E 008°44'716.7
2017-Aug-18 16:00N 38°47' E 008°53'916.9
2017-Aug-18 15:30N 38°50' E 009°03'917.1
2017-Aug-18 14:59N 38°53' E 009°14'817.4
2017-Aug-18 14:30N 38°56' E 009°24'8516.9
2017-Aug-18 09:29N 39°35' E 011°01'817.2
2017-Aug-18 09:00N 39°39' E 011°11'816.3
2017-Aug-18 08:30N 39°42' E 011°20'9416.8
2017-Aug-18 02:54N 40°22' E 013°12'717.0
2017-Aug-18 02:30N 40°25' E 013°20'817.1
2017-Aug-18 02:00N 40°29' E 013°29'917.0
2017-Aug-18 01:31N 40°33' E 013°39'816.9
2017-Aug-18 01:01N 40°36' E 013°49'917.1
2017-Aug-18 00:30N 40°41' E 013°59'816.9
2017-Aug-18 00:00N 40°45' E 014°09'714.3
2017-Aug-17 23:31N 40°49' E 014°17'2 0.5
2017-Aug-17 19:59N 40°50' E 014°17'0 0.0
2017-Aug-17 19:27N 40°50' E 014°17'1 1.8
2017-Aug-17 19:00N 40°50' E 014°17'611.2
2017-Aug-17 18:30N 40°45' E 014°14'918.2
2017-Aug-17 18:00N 40°37' E 014°06'1018.1
2017-Aug-17 17:28N 40°30' E 013°59'817.1
2017-Aug-17 16:59N 40°23' E 013°52'816.7
2017-Aug-17 16:31N 40°17' E 013°46'816.8
2017-Aug-17 16:01N 40°10' E 013°39'816.6
2017-Aug-17 15:31N 40°04' E 013°32'1119.0
2017-Aug-17 14:55N 39°55' E 013°24'7519.3
2017-Aug-17 11:02N 38°54' E 012°26'019.9
2017-Aug-17 11:00N 38°54' E 012°25'16111.3
2017-Aug-16 20:48N 36°49' E 010°18'12 2.5
2017-Aug-16 16:10N 36°59' E 010°25'516.4
2017-Aug-16 15:51N 37°04' E 010°25'617.1
2017-Aug-16 15:30N 37°10' E 010°25'2416.0
2017-Aug-16 13:58N 37°33' E 010°14'816.4
2017-Aug-16 13:29N 37°33' E 010°04'816.4
2017-Aug-16 13:00N 37°32' E 009°54'816.2
2017-Aug-16 12:30N 37°31' E 009°44'816.4
2017-Aug-16 11:59N 37°29' E 009°34'816.2
2017-Aug-16 11:30N 37°28' E 009°24'816.1
2017-Aug-16 10:59N 37°26' E 009°14'816.0
2017-Aug-16 10:30N 37°25' E 009°04'916.2
2017-Aug-16 09:57N 37°23' E 008°53'816.2
2017-Aug-16 09:29N 37°21' E 008°44'1114.6
2017-Aug-16 08:42N 37°20' E 008°29'210.9
2017-Aug-16 08:30N 37°20' E 008°27'1611.2
2017-Aug-16 07:02N 37°20' E 008°06'011.2
2017-Aug-16 07:01N 37°20' E 008°06'611.1
2017-Aug-16 06:30N 37°20' E 007°59'711.1
2017-Aug-16 05:55N 37°20' E 007°50'511.1
2017-Aug-16 05:31N 37°20' E 007°45'611.2
2017-Aug-16 04:59N 37°20' E 007°37'511.3
2017-Aug-16 04:30N 37°20' E 007°30'611.4
2017-Aug-16 04:00N 37°20' E 007°23'1311.4
2017-Aug-16 02:53N 37°20' E 007°07'411.4
2017-Aug-16 02:30N 37°20' E 007°02'611.6
2017-Aug-16 02:00N 37°20' E 006°54'611.9
2017-Aug-16 01:30N 37°20' E 006°47'612.0
2017-Aug-16 01:00N 37°20' E 006°39'611.6
2017-Aug-16 00:30N 37°21' E 006°32'611.5
2017-Aug-16 00:00N 37°20' E 006°25'611.3
2017-Aug-15 23:30N 37°20' E 006°18'611.3
2017-Aug-15 23:00N 37°20' E 006°11'611.3
2017-Aug-15 22:30N 37°20' E 006°03'611.2
2017-Aug-15 22:01N 37°20' E 005°56'611.1
2017-Aug-15 21:31N 37°20' E 005°49'611.0
2017-Aug-15 21:01N 37°20' E 005°43'611.1
2017-Aug-15 20:30N 37°20' E 005°36'1211.2
2017-Aug-15 19:25N 37°20' E 005°20'511.4
2017-Aug-15 18:59N 37°20' E 005°14'511.5
2017-Aug-15 18:31N 37°20' E 005°07'611.5
2017-Aug-15 18:00N 37°20' E 004°60'611.4
2017-Aug-15 17:30N 37°20' E 004°53'611.3
2017-Aug-15 17:00N 37°19' E 004°46'611.1
2017-Aug-15 16:29N 37°19' E 004°38'511.4
2017-Aug-15 16:00N 37°19' E 004°32'611.8
2017-Aug-15 15:30N 37°19' E 004°24'611.7
2017-Aug-15 15:01N 37°18' E 004°17'611.2
2017-Aug-15 14:30N 37°16' E 004°11'510.9
2017-Aug-15 14:00N 37°13' E 004°04'510.8
2017-Aug-15 13:30N 37°11' E 003°58'610.6
2017-Aug-15 12:57N 37°09' E 003°52'510.8
2017-Aug-15 12:30N 37°06' E 003°46'2610.3
2017-Aug-15 10:01N 36°55' E 003°17'110.4
2017-Aug-15 09:55N 36°55' E 003°16'510.4
2017-Aug-15 09:28N 36°53' E 003°11'1410.7
2017-Aug-15 08:10N 36°58' E 002°55'211.4
2017-Aug-15 07:57N 36°59' E 002°52'511.7
2017-Aug-15 07:31N 37°02' E 002°47'611.8
2017-Aug-15 07:00N 37°06' E 002°41'611.8
2017-Aug-15 06:30N 37°09' E 002°35'611.9
2017-Aug-15 06:01N 37°13' E 002°29'510.3
2017-Aug-15 05:30N 37°13' E 002°23'611.2
2017-Aug-15 05:00N 37°12' E 002°16'611.3
2017-Aug-15 04:30N 37°10' E 002°09'611.4
2017-Aug-15 03:59N 37°09' E 002°02'611.2
2017-Aug-15 03:27N 37°08' E 001°55'611.0
2017-Aug-15 02:53N 37°07' E 001°47'410.9
2017-Aug-15 02:30N 37°06' E 001°42'711.0
2017-Aug-15 01:52N 37°04' E 001°33'1510.7
2017-Aug-15 00:27N 37°01' E 001°15'2611.2
2017-Aug-14 22:08N 36°55' E 000°43'211.8
2017-Aug-14 22:00N 36°54' E 000°41'611.7
2017-Aug-14 21:31N 36°53' E 000°34'611.5
2017-Aug-14 20:58N 36°52' E 000°26'711.4
2017-Aug-14 20:20N 36°51' E 000°18'27112.9
2017-Aug-13 23:22N 35°59' W 005°12'515.4
2017-Aug-13 23:01N 35°58' W 005°19'815.2
2017-Aug-13 22:30N 35°56' W 005°28'16910.3
2017-Aug-13 06:07N 36°28' W 008°54'216.5
2017-Aug-13 05:59N 36°29' W 008°56'817.1
2017-Aug-13 05:30N 36°31' W 009°06'816.4
2017-Aug-13 05:00N 36°33' W 009°16'815.9
2017-Aug-13 04:31N 36°39' W 009°23'816.8
2017-Aug-13 04:01N 36°45' W 009°30'816.5
2017-Aug-13 03:31N 36°53' W 009°34'816.8
2017-Aug-13 03:00N 37°01' W 009°36'917.3
2017-Aug-13 02:30N 37°09' W 009°38'917.1
2017-Aug-13 02:01N 37°18' W 009°40'917.1
2017-Aug-13 01:31N 37°26' W 009°43'917.5
2017-Aug-13 01:01N 37°34' W 009°46'917.2
2017-Aug-13 00:31N 37°43' W 009°49'816.9
2017-Aug-13 00:01N 37°51' W 009°51'816.8
2017-Aug-12 23:31N 37°59' W 009°53'817.0
2017-Aug-12 23:01N 38°08' W 009°56'816.9
2017-Aug-12 22:31N 38°16' W 009°58'917.0
2017-Aug-12 22:01N 38°24' W 010°01'816.8
2017-Aug-12 21:30N 38°32' W 010°03'917.1
2017-Aug-12 21:01N 38°41' W 010°05'816.8
2017-Aug-12 20:31N 38°49' W 010°06'917.1
2017-Aug-12 20:01N 38°58' W 010°07'816.7
2017-Aug-12 19:30N 39°06' W 010°07'816.7
2017-Aug-12 19:01N 39°14' W 010°07'816.8
2017-Aug-12 18:31N 39°23' W 010°07'816.6
2017-Aug-12 18:01N 39°31' W 010°07'  
Track history (hours):
 
Tides and Currents Weather Stations Pressure Air Temp Water Temp Dewpoint Dewpoint Depression Visibility Wind Speed Wind Dir Waves Ship Positions

Ville De Bordeaux

Last reported at 2017-Aug-22 17:48 UTC. Time now 2017-Aug-22 20:41 UTC.
Position N 41°35' W 009°46'.

Length 150 m; beam 24 m.

Type: Ship. MMSI: 228084000.

Date/timePositionNaut miles runAvg speedWind from/ knotsBaromVisibWave heightAir tempDewpointWater temp
2017-Aug-22 17:48N 41°35' W 009°46'515.1
2017-Aug-22 17:30N 41°31' W 009°47'815.1
2017-Aug-22 16:58N 41°23' W 009°48'3816.0
2017-Aug-22 14:34N 40°44' W 009°49'2517.7
2017-Aug-22 13:09N 40°19' W 009°50'719.7
2017-Aug-22 12:49N 40°12' W 009°50'1019.5
2017-Aug-22 12:17N 40°02' W 009°50'1816.9
2017-Aug-22 11:13N 39°44' W 009°50'2516.5
2017-Aug-22 09:42N 39°19' W 009°50'316.6
2017-Aug-22 09:31N 39°16' W 009°50'816.1
2017-Aug-22 09:00N 39°08' W 009°51'816.1
2017-Aug-22 08:30N 38°60' W 009°51'816.1
2017-Aug-22 08:00N 38°52' W 009°51'815.8
2017-Aug-22 07:30N 38°44' W 009°52'815.9
2017-Aug-22 07:01N 38°36' W 009°49'816.2
2017-Aug-22 06:30N 38°28' W 009°47'816.1
2017-Aug-22 06:00N 38°20' W 009°44'815.5
2017-Aug-22 05:30N 38°13' W 009°42'9315.7
2017-Aug-21 23:36N 36°44' W 009°08'616.3
2017-Aug-21 23:15N 36°43' W 009°01'516.1
2017-Aug-21 22:57N 36°42' W 008°55'166 6.6
2017-Aug-20 22:00N 35°58' W 005°37'4 0.6
2017-Aug-20 14:44N 35°57' W 005°32'313.6
2017-Aug-20 14:30N 35°59' W 005°29'714.4
2017-Aug-20 14:00N 36°00' W 005°20'714.3
2017-Aug-20 13:30N 36°01' W 005°12'21312.0
2017-Aug-19 19:47N 36°43' W 000°53'2413.8
2017-Aug-19 18:01N 36°49' W 000°23'019.6
2017-Aug-19 18:00N 36°49' W 000°23'1018.6
2017-Aug-19 17:29N 36°52' W 000°11'919.0
2017-Aug-19 17:00N 36°54' W 000°00'918.6
2017-Aug-19 16:30N 36°56' E 000°11'3618.0
2017-Aug-19 14:30N 37°06' E 000°54'918.2
2017-Aug-19 14:00N 37°08' E 001°05'16617.8
2017-Aug-19 04:40N 37°52' E 004°28'317.2
2017-Aug-19 04:29N 37°52' E 004°32'4017.0
2017-Aug-19 02:07N 38°03' E 005°21'2117.0
2017-Aug-19 00:55N 38°08' E 005°46'717.0
2017-Aug-19 00:29N 38°10' E 005°55'817.2
2017-Aug-18 23:59N 38°12' E 006°06'816.8
2017-Aug-18 23:30N 38°14' E 006°16'8617.1
2017-Aug-18 18:29N 38°35' E 008°02'1316.5
2017-Aug-18 17:41N 38°39' E 008°18'1117.1
2017-Aug-18 17:02N 38°43' E 008°31'117.2
2017-Aug-18 17:00N 38°43' E 008°32'1017.0
2017-Aug-18 16:26N 38°46' E 008°44'716.7
2017-Aug-18 16:00N 38°47' E 008°53'916.9
2017-Aug-18 15:30N 38°50' E 009°03'917.1
2017-Aug-18 14:59N 38°53' E 009°14'817.4
2017-Aug-18 14:30N 38°56' E 009°24'8516.9
2017-Aug-18 09:29N 39°35' E 011°01'817.2
2017-Aug-18 09:00N 39°39' E 011°11'816.3
2017-Aug-18 08:30N 39°42' E 011°20'9416.8
2017-Aug-18 02:54N 40°22' E 013°12'717.0
2017-Aug-18 02:30N 40°25' E 013°20'817.1
2017-Aug-18 02:00N 40°29' E 013°29'917.0
2017-Aug-18 01:31N 40°33' E 013°39'816.9
2017-Aug-18 01:01N 40°36' E 013°49'917.1
2017-Aug-18 00:30N 40°41' E 013°59'816.9
2017-Aug-18 00:00N 40°45' E 014°09'714.3
2017-Aug-17 23:31N 40°49' E 014°17'2 0.5
2017-Aug-17 19:59N 40°50' E 014°17'0 0.0
2017-Aug-17 19:27N 40°50' E 014°17'1 1.8
2017-Aug-17 19:00N 40°50' E 014°17'611.2
2017-Aug-17 18:30N 40°45' E 014°14'918.2
2017-Aug-17 18:00N 40°37' E 014°06'1018.1
2017-Aug-17 17:28N 40°30' E 013°59'817.1
2017-Aug-17 16:59N 40°23' E 013°52'816.7
2017-Aug-17 16:31N 40°17' E 013°46'816.8
2017-Aug-17 16:01N 40°10' E 013°39'816.6
2017-Aug-17 15:31N 40°04' E 013°32'1119.0
2017-Aug-17 14:55N 39°55' E 013°24'7519.3
2017-Aug-17 11:02N 38°54' E 012°26'019.9
2017-Aug-17 11:00N 38°54' E 012°25'16111.3
2017-Aug-16 20:48N 36°49' E 010°18'12 2.5
2017-Aug-16 16:10N 36°59' E 010°25'516.4
2017-Aug-16 15:51N 37°04' E 010°25'617.1
2017-Aug-16 15:30N 37°10' E 010°25'2416.0
2017-Aug-16 13:58N 37°33' E 010°14'816.4
2017-Aug-16 13:29N 37°33' E 010°04'816.4
2017-Aug-16 13:00N 37°32' E 009°54'816.2
2017-Aug-16 12:30N 37°31' E 009°44'816.4
2017-Aug-16 11:59N 37°29' E 009°34'816.2
2017-Aug-16 11:30N 37°28' E 009°24'816.1
2017-Aug-16 10:59N 37°26' E 009°14'816.0
2017-Aug-16 10:30N 37°25' E 009°04'916.2
2017-Aug-16 09:57N 37°23' E 008°53'816.2
2017-Aug-16 09:29N 37°21' E 008°44'1114.6
2017-Aug-16 08:42N 37°20' E 008°29'210.9
2017-Aug-16 08:30N 37°20' E 008°27'1611.2
2017-Aug-16 07:02N 37°20' E 008°06'011.2
2017-Aug-16 07:01N 37°20' E 008°06'611.1
2017-Aug-16 06:30N 37°20' E 007°59'711.1
2017-Aug-16 05:55N 37°20' E 007°50'511.1
2017-Aug-16 05:31N 37°20' E 007°45'611.2
2017-Aug-16 04:59N 37°20' E 007°37'511.3
2017-Aug-16 04:30N 37°20' E 007°30'611.4
2017-Aug-16 04:00N 37°20' E 007°23'1311.4
2017-Aug-16 02:53N 37°20' E 007°07'411.4
2017-Aug-16 02:30N 37°20' E 007°02'611.6
2017-Aug-16 02:00N 37°20' E 006°54'611.9
2017-Aug-16 01:30N 37°20' E 006°47'612.0
2017-Aug-16 01:00N 37°20' E 006°39'611.6
2017-Aug-16 00:30N 37°21' E 006°32'611.5
2017-Aug-16 00:00N 37°20' E 006°25'611.3
2017-Aug-15 23:30N 37°20' E 006°18'611.3
2017-Aug-15 23:00N 37°20' E 006°11'611.3
2017-Aug-15 22:30N 37°20' E 006°03'611.2
2017-Aug-15 22:01N 37°20' E 005°56'611.1
2017-Aug-15 21:31N 37°20' E 005°49'611.0
2017-Aug-15 21:01N 37°20' E 005°43'611.1
2017-Aug-15 20:30N 37°20' E 005°36'1211.2
2017-Aug-15 19:25N 37°20' E 005°20'511.4
2017-Aug-15 18:59N 37°20' E 005°14'511.5
2017-Aug-15 18:31N 37°20' E 005°07'611.5
2017-Aug-15 18:00N 37°20' E 004°60'611.4
2017-Aug-15 17:30N 37°20' E 004°53'611.3
2017-Aug-15 17:00N 37°19' E 004°46'611.1
2017-Aug-15 16:29N 37°19' E 004°38'511.4
2017-Aug-15 16:00N 37°19' E 004°32'611.8
2017-Aug-15 15:30N 37°19' E 004°24'611.7
2017-Aug-15 15:01N 37°18' E 004°17'611.2
2017-Aug-15 14:30N 37°16' E 004°11'510.9
2017-Aug-15 14:00N 37°13' E 004°04'510.8
2017-Aug-15 13:30N 37°11' E 003°58'610.6
2017-Aug-15 12:57N 37°09' E 003°52'510.8
2017-Aug-15 12:30N 37°06' E 003°46'2610.3
2017-Aug-15 10:01N 36°55' E 003°17'110.4
2017-Aug-15 09:55N 36°55' E 003°16'510.4
2017-Aug-15 09:28N 36°53' E 003°11'1410.7
2017-Aug-15 08:10N 36°58' E 002°55'211.4
2017-Aug-15 07:57N 36°59' E 002°52'511.7
2017-Aug-15 07:31N 37°02' E 002°47'611.8
2017-Aug-15 07:00N 37°06' E 002°41'611.8
2017-Aug-15 06:30N 37°09' E 002°35'611.9
2017-Aug-15 06:01N 37°13' E 002°29'510.3
2017-Aug-15 05:30N 37°13' E 002°23'611.2
2017-Aug-15 05:00N 37°12' E 002°16'611.3
2017-Aug-15 04:30N 37°10' E 002°09'611.4
2017-Aug-15 03:59N 37°09' E 002°02'611.2
2017-Aug-15 03:27N 37°08' E 001°55'611.0
2017-Aug-15 02:53N 37°07' E 001°47'410.9
2017-Aug-15 02:30N 37°06' E 001°42'711.0
2017-Aug-15 01:52N 37°04' E 001°33'1510.7
2017-Aug-15 00:27N 37°01' E 001°15'2611.2
2017-Aug-14 22:08N 36°55' E 000°43'211.8
2017-Aug-14 22:00N 36°54' E 000°41'611.7
2017-Aug-14 21:31N 36°53' E 000°34'611.5
2017-Aug-14 20:58N 36°52' E 000°26'711.4
2017-Aug-14 20:20N 36°51' E 000°18'27112.9
2017-Aug-13 23:22N 35°59' W 005°12'515.4
2017-Aug-13 23:01N 35°58' W 005°19'815.2
2017-Aug-13 22:30N 35°56' W 005°28'16910.3
2017-Aug-13 06:07N 36°28' W 008°54'216.5
2017-Aug-13 05:59N 36°29' W 008°56'817.1
2017-Aug-13 05:30N 36°31' W 009°06'816.4
2017-Aug-13 05:00N 36°33' W 009°16'815.9
2017-Aug-13 04:31N 36°39' W 009°23'816.8
2017-Aug-13 04:01N 36°45' W 009°30'816.5
2017-Aug-13 03:31N 36°53' W 009°34'816.8
2017-Aug-13 03:00N 37°01' W 009°36'917.3
2017-Aug-13 02:30N 37°09' W 009°38'917.1
2017-Aug-13 02:01N 37°18' W 009°40'917.1
2017-Aug-13 01:31N 37°26' W 009°43'917.5
2017-Aug-13 01:01N 37°34' W 009°46'917.2
2017-Aug-13 00:31N 37°43' W 009°49'816.9
2017-Aug-13 00:01N 37°51' W 009°51'816.8
2017-Aug-12 23:31N 37°59' W 009°53'817.0
2017-Aug-12 23:01N 38°08' W 009°56'816.9
2017-Aug-12 22:31N 38°16' W 009°58'917.0
2017-Aug-12 22:01N 38°24' W 010°01'816.8
2017-Aug-12 21:30N 38°32' W 010°03'917.1
2017-Aug-12 21:01N 38°41' W 010°05'816.8
2017-Aug-12 20:31N 38°49' W 010°06'917.1
2017-Aug-12 20:01N 38°58' W 010°07'816.7
2017-Aug-12 19:30N 39°06' W 010°07'816.7
2017-Aug-12 19:01N 39°14' W 010°07'816.8
2017-Aug-12 18:31N 39°23' W 010°07'816.6
2017-Aug-12 18:01N 39°31' W 010°07'  

Dump ship's entire track history